sensor_id;sensor_type;location;lat;lon;timestamp;P1;durP1;ratioP1;P2;durP2;ratioP2
39930;SDS011;26635;-35.248;149.138;2022-12-18T00:00:32;1.98;;;0.68;;
39930;SDS011;26635;-35.248;149.138;2022-12-18T00:03:08;0.60;;;0.10;;
39930;SDS011;26635;-35.248;149.138;2022-12-18T00:05:46;1.23;;;0.47;;
39930;SDS011;26635;-35.248;149.138;2022-12-18T00:08:20;0.95;;;0.20;;
39930;SDS011;26635;-35.248;149.138;2022-12-18T00:10:54;0.90;;;0.20;;
39930;SDS011;26635;-35.248;149.138;2022-12-18T00:13:26;0.75;;;0.10;;
39930;SDS011;26635;-35.248;149.138;2022-12-18T00:16:01;0.85;;;0.10;;
39930;SDS011;26635;-35.248;149.138;2022-12-18T00:18:32;1.95;;;0.20;;
39930;SDS011;26635;-35.248;149.138;2022-12-18T00:21:04;2.42;;;0.20;;
39930;SDS011;26635;-35.248;149.138;2022-12-18T00:23:37;0.10;;;0.05;;
39930;SDS011;26635;-35.248;149.138;2022-12-18T00:26:13;1.10;;;0.08;;
39930;SDS011;26635;-35.248;149.138;2022-12-18T00:28:48;1.02;;;0.47;;
39930;SDS011;26635;-35.248;149.138;2022-12-18T00:31:20;1.67;;;0.20;;
39930;SDS011;26635;-35.248;149.138;2022-12-18T00:33:56;0.20;;;0.10;;
39930;SDS011;26635;-35.248;149.138;2022-12-18T00:36:28;0.32;;;0.10;;
39930;SDS011;26635;-35.248;149.138;2022-12-18T00:39:01;0.38;;;0.10;;
39930;SDS011;26635;-35.248;149.138;2022-12-18T00:41:32;0.22;;;0.00;;
39930;SDS011;26635;-35.248;149.138;2022-12-18T00:44:21;1.10;;;0.22;;
39930;SDS011;26635;-35.248;149.138;2022-12-18T00:46:52;0.90;;;0.28;;
39930;SDS011;26635;-35.248;149.138;2022-12-18T00:49:22;1.23;;;0.10;;
39930;SDS011;26635;-35.248;149.138;2022-12-18T00:51:53;2.67;;;0.20;;
39930;SDS011;26635;-35.248;149.138;2022-12-18T00:54:23;0.28;;;0.00;;
39930;SDS011;26635;-35.248;149.138;2022-12-18T00:56:54;0.38;;;0.13;;
39930;SDS011;26635;-35.248;149.138;2022-12-18T00:59:24;0.15;;;0.00;;
39930;SDS011;26635;-35.248;149.138;2022-12-18T01:01:55;1.58;;;0.20;;
39930;SDS011;26635;-35.248;149.138;2022-12-18T01:04:25;0.88;;;0.45;;
39930;SDS011;26635;-35.248;149.138;2022-12-18T01:06:56;0.90;;;0.20;;
39930;SDS011;26635;-35.248;149.138;2022-12-18T01:09:27;0.55;;;0.10;;
39930;SDS011;26635;-35.248;149.138;2022-12-18T01:11:57;1.38;;;0.20;;
39930;SDS011;26635;-35.248;149.138;2022-12-18T01:14:28;1.63;;;0.52;;
39930;SDS011;26635;-35.248;149.138;2022-12-18T01:16:58;1.15;;;0.22;;
39930;SDS011;26635;-35.248;149.138;2022-12-18T01:19:31;0.47;;;0.10;;
39930;SDS011;26635;-35.248;149.138;2022-12-18T01:22:01;0.30;;;0.00;;
39930;SDS011;26635;-35.248;149.138;2022-12-18T01:24:32;1.08;;;0.20;;
39930;SDS011;26635;-35.248;149.138;2022-12-18T01:27:03;0.57;;;0.28;;
39930;SDS011;26635;-35.248;149.138;2022-12-18T01:29:34;1.20;;;0.45;;
39930;SDS011;26635;-35.248;149.138;2022-12-18T01:32:05;1.42;;;0.35;;
39930;SDS011;26635;-35.248;149.138;2022-12-18T01:34:37;0.52;;;0.10;;
39930;SDS011;26635;-35.248;149.138;2022-12-18T01:37:07;0.90;;;0.10;;
39930;SDS011;26635;-35.248;149.138;2022-12-18T01:39:38;0.90;;;0.10;;
39930;SDS011;26635;-35.248;149.138;2022-12-18T01:42:11;0.28;;;0.17;;
39930;SDS011;26635;-35.248;149.138;2022-12-18T01:44:55;1.20;;;0.10;;
39930;SDS011;26635;-35.248;149.138;2022-12-18T01:53:07;1.08;;;0.20;;
39930;SDS011;26635;-35.248;149.138;2022-12-18T01:55:55;0.90;;;0.38;;
39930;SDS011;26635;-35.248;149.138;2022-12-18T02:01:15;0.63;;;0.10;;
39930;SDS011;26635;-35.248;149.138;2022-12-18T02:03:47;0.55;;;0.20;;
39930;SDS011;26635;-35.248;149.138;2022-12-18T02:06:33;2.67;;;0.55;;
39930;SDS011;26635;-35.248;149.138;2022-12-18T02:09:15;1.45;;;0.20;;
39930;SDS011;26635;-35.248;149.138;2022-12-18T02:26:50;2.25;;;1.02;;
39930;SDS011;26635;-35.248;149.138;2022-12-18T02:29:32;2.28;;;0.45;;
39930;SDS011;26635;-35.248;149.138;2022-12-18T02:32:11;1.40;;;0.20;;
39930;SDS011;26635;-35.248;149.138;2022-12-18T02:34:47;0.30;;;0.13;;
39930;SDS011;26635;-35.248;149.138;2022-12-18T02:37:19;1.08;;;0.15;;
39930;SDS011;26635;-35.248;149.138;2022-12-18T02:39:51;1.05;;;0.30;;
39930;SDS011;26635;-35.248;149.138;2022-12-18T02:42:25;0.70;;;0.10;;
39930;SDS011;26635;-35.248;149.138;2022-12-18T02:44:57;0.25;;;0.10;;
39930;SDS011;26635;-35.248;149.138;2022-12-18T02:47:29;0.22;;;0.10;;
39930;SDS011;26635;-35.248;149.138;2022-12-18T02:50:06;0.85;;;0.10;;
39930;SDS011;26635;-35.248;149.138;2022-12-18T03:04:33;0.55;;;0.30;;
39930;SDS011;26635;-35.248;149.138;2022-12-18T03:07:20;2.05;;;0.15;;
39930;SDS011;26635;-35.248;149.138;2022-12-18T03:10:05;1.25;;;0.20;;
39930;SDS011;26635;-35.248;149.138;2022-12-18T03:12:40;1.25;;;0.20;;
39930;SDS011;26635;-35.248;149.138;2022-12-18T03:15:20;0.70;;;0.17;;
39930;SDS011;26635;-35.248;149.138;2022-12-18T03:17:57;0.90;;;0.10;;
39930;SDS011;26635;-35.248;149.138;2022-12-18T03:20:42;2.20;;;0.10;;
39930;SDS011;26635;-35.248;149.138;2022-12-18T03:23:18;1.50;;;0.22;;
39930;SDS011;26635;-35.248;149.138;2022-12-18T03:25:54;0.40;;;0.10;;
39930;SDS011;26635;-35.248;149.138;2022-12-18T03:28:34;1.25;;;0.13;;
39930;SDS011;26635;-35.248;149.138;2022-12-18T03:31:08;0.60;;;0.10;;
39930;SDS011;26635;-35.248;149.138;2022-12-18T03:33:45;1.17;;;0.03;;
39930;SDS011;26635;-35.248;149.138;2022-12-18T03:36:22;0.57;;;0.20;;
39930;SDS011;26635;-35.248;149.138;2022-12-18T03:38:55;0.40;;;0.00;;
39930;SDS011;26635;-35.248;149.138;2022-12-18T03:52:26;1.92;;;0.10;;
39930;SDS011;26635;-35.248;149.138;2022-12-18T03:55:05;0.10;;;0.10;;
39930;SDS011;26635;-35.248;149.138;2022-12-18T03:57:38;0.28;;;0.10;;
39930;SDS011;26635;-35.248;149.138;2022-12-18T04:00:14;0.17;;;0.00;;
39930;SDS011;26635;-35.248;149.138;2022-12-18T04:02:48;0.88;;;0.05;;
39930;SDS011;26635;-35.248;149.138;2022-12-18T04:05:22;0.52;;;0.20;;
39930;SDS011;26635;-35.248;149.138;2022-12-18T04:07:55;2.17;;;0.10;;
39930;SDS011;26635;-35.248;149.138;2022-12-18T04:10:27;0.10;;;0.00;;
39930;SDS011;26635;-35.248;149.138;2022-12-18T04:12:58;0.40;;;0.10;;
39930;SDS011;26635;-35.248;149.138;2022-12-18T04:15:30;0.43;;;0.22;;
39930;SDS011;26635;-35.248;149.138;2022-12-18T04:18:05;1.15;;;0.20;;
39930;SDS011;26635;-35.248;149.138;2022-12-18T04:20:40;1.23;;;0.10;;
39930;SDS011;26635;-35.248;149.138;2022-12-18T04:23:11;0.80;;;0.10;;
39930;SDS011;26635;-35.248;149.138;2022-12-18T04:25:41;0.80;;;0.10;;
39930;SDS011;26635;-35.248;149.138;2022-12-18T04:28:13;0.20;;;0.10;;
39930;SDS011;26635;-35.248;149.138;2022-12-18T04:30:44;0.85;;;0.35;;
39930;SDS011;26635;-35.248;149.138;2022-12-18T04:33:19;0.60;;;0.20;;
39930;SDS011;26635;-35.248;149.138;2022-12-18T04:35:50;0.43;;;0.00;;
39930;SDS011;26635;-35.248;149.138;2022-12-18T04:38:20;1.27;;;0.70;;
39930;SDS011;26635;-35.248;149.138;2022-12-18T04:40:50;1.13;;;0.30;;
39930;SDS011;26635;-35.248;149.138;2022-12-18T04:43:20;0.30;;;0.00;;
39930;SDS011;26635;-35.248;149.138;2022-12-18T04:45:51;2.15;;;0.40;;
39930;SDS011;26635;-35.248;149.138;2022-12-18T04:48:21;0.22;;;0.10;;
39930;SDS011;26635;-35.248;149.138;2022-12-18T04:50:51;2.00;;;0.20;;
39930;SDS011;26635;-35.248;149.138;2022-12-18T04:53:22;0.52;;;0.10;;
39930;SDS011;26635;-35.248;149.138;2022-12-18T04:58:55;1.52;;;0.28;;
39930;SDS011;26635;-35.248;149.138;2022-12-18T05:01:26;1.85;;;0.25;;
39930;SDS011;26635;-35.248;149.138;2022-12-18T05:04:01;0.88;;;0.20;;
39930;SDS011;26635;-35.248;149.138;2022-12-18T05:06:31;1.02;;;0.08;;
39930;SDS011;26635;-35.248;149.138;2022-12-18T05:09:03;1.05;;;0.10;;
39930;SDS011;26635;-35.248;149.138;2022-12-18T05:11:35;0.08;;;0.00;;
39930;SDS011;26635;-35.248;149.138;2022-12-18T05:14:06;0.55;;;0.55;;
39930;SDS011;26635;-35.248;149.138;2022-12-18T05:16:37;0.45;;;0.00;;
39930;SDS011;26635;-35.248;149.138;2022-12-18T05:19:07;2.58;;;0.10;;
39930;SDS011;26635;-35.248;149.138;2022-12-18T05:21:40;0.43;;;0.05;;
39930;SDS011;26635;-35.248;149.138;2022-12-18T05:24:11;0.15;;;0.00;;
39930;SDS011;26635;-35.248;149.138;2022-12-18T05:26:42;0.17;;;0.00;;
39930;SDS011;26635;-35.248;149.138;2022-12-18T05:29:14;0.98;;;0.10;;
39930;SDS011;26635;-35.248;149.138;2022-12-18T05:31:44;0.15;;;0.00;;
39930;SDS011;26635;-35.248;149.138;2022-12-18T05:34:15;0.25;;;0.10;;
39930;SDS011;26635;-35.248;149.138;2022-12-18T05:36:46;0.60;;;0.10;;
39930;SDS011;26635;-35.248;149.138;2022-12-18T05:39:16;0.52;;;0.10;;
39930;SDS011;26635;-35.248;149.138;2022-12-18T05:41:47;0.20;;;0.00;;
39930;SDS011;26635;-35.248;149.138;2022-12-18T05:44:18;0.77;;;0.10;;
39930;SDS011;26635;-35.248;149.138;2022-12-18T05:46:48;0.20;;;0.13;;
39930;SDS011;26635;-35.248;149.138;2022-12-18T05:49:19;0.10;;;0.00;;
39930;SDS011;26635;-35.248;149.138;2022-12-18T05:51:49;1.08;;;0.10;;
39930;SDS011;26635;-35.248;149.138;2022-12-18T05:54:19;0.60;;;0.08;;
39930;SDS011;26635;-35.248;149.138;2022-12-18T05:56:50;1.08;;;0.00;;
39930;SDS011;26635;-35.248;149.138;2022-12-18T05:59:20;0.40;;;0.10;;
39930;SDS011;26635;-35.248;149.138;2022-12-18T06:01:50;0.63;;;0.10;;
39930;SDS011;26635;-35.248;149.138;2022-12-18T06:04:21;0.95;;;0.35;;
39930;SDS011;26635;-35.248;149.138;2022-12-18T06:06:51;1.20;;;0.10;;
39930;SDS011;26635;-35.248;149.138;2022-12-18T06:09:22;0.10;;;0.00;;
39930;SDS011;26635;-35.248;149.138;2022-12-18T06:11:53;1.33;;;0.25;;
39930;SDS011;26635;-35.248;149.138;2022-12-18T06:14:23;0.85;;;0.30;;
39930;SDS011;26635;-35.248;149.138;2022-12-18T06:16:54;0.32;;;0.08;;
39930;SDS011;26635;-35.248;149.138;2022-12-18T06:19:25;0.20;;;0.00;;
39930;SDS011;26635;-35.248;149.138;2022-12-18T06:21:56;0.52;;;0.10;;
39930;SDS011;26635;-35.248;149.138;2022-12-18T06:24:27;2.70;;;0.10;;
39930;SDS011;26635;-35.248;149.138;2022-12-18T06:27:00;0.22;;;0.00;;
39930;SDS011;26635;-35.248;149.138;2022-12-18T06:29:30;0.00;;;0.00;;
39930;SDS011;26635;-35.248;149.138;2022-12-18T06:32:02;1.70;;;0.10;;
39930;SDS011;26635;-35.248;149.138;2022-12-18T06:34:33;0.20;;;0.00;;
39930;SDS011;26635;-35.248;149.138;2022-12-18T06:37:05;2.00;;;0.10;;
39930;SDS011;26635;-35.248;149.138;2022-12-18T06:39:36;0.60;;;0.10;;
39930;SDS011;26635;-35.248;149.138;2022-12-18T06:42:06;0.20;;;0.10;;
39930;SDS011;26635;-35.248;149.138;2022-12-18T06:44:37;0.38;;;0.10;;
39930;SDS011;26635;-35.248;149.138;2022-12-18T06:47:10;0.10;;;0.00;;
39930;SDS011;26635;-35.248;149.138;2022-12-18T06:49:44;2.58;;;0.30;;
39930;SDS011;26635;-35.248;149.138;2022-12-18T06:52:16;0.13;;;0.00;;
39930;SDS011;26635;-35.248;149.138;2022-12-18T06:54:47;0.82;;;0.00;;
39930;SDS011;26635;-35.248;149.138;2022-12-18T06:57:18;0.10;;;0.00;;
39930;SDS011;26635;-35.248;149.138;2022-12-18T06:59:49;0.20;;;0.10;;
39930;SDS011;26635;-35.248;149.138;2022-12-18T07:02:20;0.40;;;0.10;;
39930;SDS011;26635;-35.248;149.138;2022-12-18T07:04:51;0.60;;;0.20;;
39930;SDS011;26635;-35.248;149.138;2022-12-18T07:07:21;1.25;;;0.20;;
39930;SDS011;26635;-35.248;149.138;2022-12-18T07:09:54;0.20;;;0.15;;
39930;SDS011;26635;-35.248;149.138;2022-12-18T07:12:24;1.17;;;0.40;;
39930;SDS011;26635;-35.248;149.138;2022-12-18T07:14:56;0.52;;;0.10;;
39930;SDS011;26635;-35.248;149.138;2022-12-18T07:17:27;0.43;;;0.10;;
39930;SDS011;26635;-35.248;149.138;2022-12-18T07:19:58;0.80;;;0.20;;
39930;SDS011;26635;-35.248;149.138;2022-12-18T07:22:28;0.75;;;0.30;;
39930;SDS011;26635;-35.248;149.138;2022-12-18T07:24:59;0.80;;;0.10;;
39930;SDS011;26635;-35.248;149.138;2022-12-18T07:27:30;1.55;;;0.30;;
39930;SDS011;26635;-35.248;149.138;2022-12-18T07:30:02;0.52;;;0.17;;
39930;SDS011;26635;-35.248;149.138;2022-12-18T07:32:33;1.08;;;0.20;;
39930;SDS011;26635;-35.248;149.138;2022-12-18T07:35:03;1.15;;;0.10;;
39930;SDS011;26635;-35.248;149.138;2022-12-18T07:37:34;0.35;;;0.10;;
39930;SDS011;26635;-35.248;149.138;2022-12-18T07:40:05;0.98;;;0.10;;
39930;SDS011;26635;-35.248;149.138;2022-12-18T07:42:36;0.65;;;0.10;;
39930;SDS011;26635;-35.248;149.138;2022-12-18T07:45:10;3.40;;;0.25;;
39930;SDS011;26635;-35.248;149.138;2022-12-18T07:47:41;1.45;;;0.10;;
39930;SDS011;26635;-35.248;149.138;2022-12-18T07:50:12;1.27;;;0.20;;
39930;SDS011;26635;-35.248;149.138;2022-12-18T07:52:43;0.85;;;0.20;;
39930;SDS011;26635;-35.248;149.138;2022-12-18T07:55:13;2.92;;;0.20;;
39930;SDS011;26635;-35.248;149.138;2022-12-18T07:57:43;2.50;;;0.30;;
39930;SDS011;26635;-35.248;149.138;2022-12-18T08:00:21;1.50;;;0.20;;
39930;SDS011;26635;-35.248;149.138;2022-12-18T08:02:54;1.15;;;0.20;;
39930;SDS011;26635;-35.248;149.138;2022-12-18T08:08:37;1.35;;;0.30;;
39930;SDS011;26635;-35.248;149.138;2022-12-18T08:11:11;1.23;;;0.40;;
39930;SDS011;26635;-35.248;149.138;2022-12-18T08:13:42;2.75;;;0.30;;
39930;SDS011;26635;-35.248;149.138;2022-12-18T08:16:14;2.97;;;0.35;;
39930;SDS011;26635;-35.248;149.138;2022-12-18T08:18:47;0.40;;;0.10;;
39930;SDS011;26635;-35.248;149.138;2022-12-18T08:21:21;1.85;;;0.20;;
39930;SDS011;26635;-35.248;149.138;2022-12-18T08:23:55;1.58;;;0.32;;
39930;SDS011;26635;-35.248;149.138;2022-12-18T08:26:30;0.75;;;0.10;;
39930;SDS011;26635;-35.248;149.138;2022-12-18T08:29:03;2.65;;;0.40;;
39930;SDS011;26635;-35.248;149.138;2022-12-18T08:31:48;1.98;;;0.35;;
39930;SDS011;26635;-35.248;149.138;2022-12-18T08:34:34;1.88;;;0.77;;
39930;SDS011;26635;-35.248;149.138;2022-12-18T08:37:06;0.85;;;0.30;;
39930;SDS011;26635;-35.248;149.138;2022-12-18T08:40:06;2.13;;;0.22;;
39930;SDS011;26635;-35.248;149.138;2022-12-18T08:42:38;1.15;;;0.20;;
39930;SDS011;26635;-35.248;149.138;2022-12-18T08:45:27;6.35;;;0.40;;
39930;SDS011;26635;-35.248;149.138;2022-12-18T08:48:01;1.40;;;0.40;;
39930;SDS011;26635;-35.248;149.138;2022-12-18T08:50:36;1.27;;;0.30;;
39930;SDS011;26635;-35.248;149.138;2022-12-18T08:53:06;2.88;;;0.30;;
39930;SDS011;26635;-35.248;149.138;2022-12-18T08:55:36;3.78;;;1.50;;
39930;SDS011;26635;-35.248;149.138;2022-12-18T08:58:11;2.75;;;0.50;;
39930;SDS011;26635;-35.248;149.138;2022-12-18T09:00:41;1.90;;;0.30;;
39930;SDS011;26635;-35.248;149.138;2022-12-18T09:03:13;1.98;;;0.60;;
39930;SDS011;26635;-35.248;149.138;2022-12-18T09:05:45;3.88;;;0.57;;
39930;SDS011;26635;-35.248;149.138;2022-12-18T09:08:20;2.63;;;0.32;;
39930;SDS011;26635;-35.248;149.138;2022-12-18T09:10:55;4.18;;;1.13;;
39930;SDS011;26635;-35.248;149.138;2022-12-18T09:13:26;1.88;;;0.50;;
39930;SDS011;26635;-35.248;149.138;2022-12-18T09:15:57;3.85;;;1.15;;
39930;SDS011;26635;-35.248;149.138;2022-12-18T09:18:33;2.55;;;0.30;;
39930;SDS011;26635;-35.248;149.138;2022-12-18T09:21:11;5.30;;;1.00;;
39930;SDS011;26635;-35.248;149.138;2022-12-18T09:23:43;2.15;;;1.25;;
39930;SDS011;26635;-35.248;149.138;2022-12-18T09:26:14;3.17;;;0.60;;
39930;SDS011;26635;-35.248;149.138;2022-12-18T09:28:44;2.60;;;0.57;;
39930;SDS011;26635;-35.248;149.138;2022-12-18T09:31:15;3.55;;;0.77;;
39930;SDS011;26635;-35.248;149.138;2022-12-18T09:33:46;1.88;;;0.43;;
39930;SDS011;26635;-35.248;149.138;2022-12-18T09:36:17;3.45;;;0.60;;
39930;SDS011;26635;-35.248;149.138;2022-12-18T09:38:51;3.50;;;0.50;;
39930;SDS011;26635;-35.248;149.138;2022-12-18T09:46:42;3.88;;;0.85;;
39930;SDS011;26635;-35.248;149.138;2022-12-18T09:49:16;2.38;;;0.77;;
39930;SDS011;26635;-35.248;149.138;2022-12-18T09:54:35;2.42;;;0.40;;
39930;SDS011;26635;-35.248;149.138;2022-12-18T09:57:19;2.35;;;0.60;;
39930;SDS011;26635;-35.248;149.138;2022-12-18T09:59:56;2.47;;;0.32;;
39930;SDS011;26635;-35.248;149.138;2022-12-18T10:02:37;3.83;;;1.60;;
39930;SDS011;26635;-35.248;149.138;2022-12-18T10:05:20;10.18;;;1.15;;
39930;SDS011;26635;-35.248;149.138;2022-12-18T10:20:16;4.53;;;0.95;;
39930;SDS011;26635;-35.248;149.138;2022-12-18T10:28:25;4.03;;;0.40;;
39930;SDS011;26635;-35.248;149.138;2022-12-18T10:30:58;7.07;;;0.55;;
39930;SDS011;26635;-35.248;149.138;2022-12-18T10:33:30;4.72;;;0.60;;
39930;SDS011;26635;-35.248;149.138;2022-12-18T10:36:02;4.90;;;0.73;;
39930;SDS011;26635;-35.248;149.138;2022-12-18T10:38:34;6.82;;;2.35;;
39930;SDS011;26635;-35.248;149.138;2022-12-18T10:46:46;4.32;;;0.50;;
39930;SDS011;26635;-35.248;149.138;2022-12-18T10:49:19;3.95;;;0.50;;
39930;SDS011;26635;-35.248;149.138;2022-12-18T10:52:07;5.47;;;1.23;;
39930;SDS011;26635;-35.248;149.138;2022-12-18T10:54:49;3.28;;;0.55;;
39930;SDS011;26635;-35.248;149.138;2022-12-18T10:57:36;4.03;;;0.63;;
39930;SDS011;26635;-35.248;149.138;2022-12-18T11:02:54;3.83;;;0.70;;
39930;SDS011;26635;-35.248;149.138;2022-12-18T11:05:27;4.00;;;0.68;;
39930;SDS011;26635;-35.248;149.138;2022-12-18T11:08:00;2.97;;;1.08;;
39930;SDS011;26635;-35.248;149.138;2022-12-18T11:10:35;1.48;;;0.65;;
39930;SDS011;26635;-35.248;149.138;2022-12-18T11:13:12;3.83;;;0.85;;
39930;SDS011;26635;-35.248;149.138;2022-12-18T11:15:48;3.03;;;0.55;;
39930;SDS011;26635;-35.248;149.138;2022-12-18T11:21:06;4.10;;;0.40;;
39930;SDS011;26635;-35.248;149.138;2022-12-18T11:26:22;3.00;;;0.40;;
39930;SDS011;26635;-35.248;149.138;2022-12-18T11:29:09;1.90;;;0.50;;
39930;SDS011;26635;-35.248;149.138;2022-12-18T11:31:47;3.15;;;0.43;;
39930;SDS011;26635;-35.248;149.138;2022-12-18T11:34:27;3.10;;;0.90;;
39930;SDS011;26635;-35.248;149.138;2022-12-18T11:37:01;2.88;;;0.65;;
39930;SDS011;26635;-35.248;149.138;2022-12-18T11:39:40;3.00;;;0.75;;
39930;SDS011;26635;-35.248;149.138;2022-12-18T11:42:32;4.28;;;0.50;;
39930;SDS011;26635;-35.248;149.138;2022-12-18T11:45:29;4.60;;;1.02;;
39930;SDS011;26635;-35.248;149.138;2022-12-18T11:50:50;5.90;;;0.73;;
39930;SDS011;26635;-35.248;149.138;2022-12-18T11:53:27;3.28;;;0.75;;
39930;SDS011;26635;-35.248;149.138;2022-12-18T11:56:04;6.72;;;0.68;;
39930;SDS011;26635;-35.248;149.138;2022-12-18T12:10:46;4.10;;;0.70;;
39930;SDS011;26635;-35.248;149.138;2022-12-18T12:13:20;3.65;;;0.60;;
39930;SDS011;26635;-35.248;149.138;2022-12-18T12:16:17;4.93;;;1.20;;
39930;SDS011;26635;-35.248;149.138;2022-12-18T12:19:05;4.50;;;0.57;;
39930;SDS011;26635;-35.248;149.138;2022-12-18T12:21:58;2.97;;;0.38;;
39930;SDS011;26635;-35.248;149.138;2022-12-18T12:24:55;2.10;;;1.23;;
39930;SDS011;26635;-35.248;149.138;2022-12-18T12:30:29;5.78;;;1.17;;
39930;SDS011;26635;-35.248;149.138;2022-12-18T12:36:50;4.95;;;0.55;;
39930;SDS011;26635;-35.248;149.138;2022-12-18T12:39:24;5.15;;;0.50;;
39930;SDS011;26635;-35.248;149.138;2022-12-18T12:42:05;4.90;;;1.92;;
39930;SDS011;26635;-35.248;149.138;2022-12-18T12:51:32;4.00;;;0.70;;
39930;SDS011;26635;-35.248;149.138;2022-12-18T12:54:12;5.30;;;0.98;;
39930;SDS011;26635;-35.248;149.138;2022-12-18T12:57:00;5.60;;;0.80;;
39930;SDS011;26635;-35.248;149.138;2022-12-18T12:59:47;2.50;;;0.40;;
39930;SDS011;26635;-35.248;149.138;2022-12-18T13:08:04;5.10;;;0.55;;
39930;SDS011;26635;-35.248;149.138;2022-12-18T13:10:41;8.50;;;1.38;;
39930;SDS011;26635;-35.248;149.138;2022-12-18T13:13:13;5.38;;;0.60;;
39930;SDS011;26635;-35.248;149.138;2022-12-18T13:16:11;4.50;;;0.95;;
39930;SDS011;26635;-35.248;149.138;2022-12-18T13:18:40;2.80;;;0.90;;
39930;SDS011;26635;-35.248;149.138;2022-12-18T13:24:15;7.43;;;1.48;;
39930;SDS011;26635;-35.248;149.138;2022-12-18T13:26:59;6.22;;;0.70;;
39930;SDS011;26635;-35.248;149.138;2022-12-18T13:29:43;6.43;;;0.90;;
39930;SDS011;26635;-35.248;149.138;2022-12-18T13:32:22;4.07;;;0.80;;
39930;SDS011;26635;-35.248;149.138;2022-12-18T13:37:52;3.17;;;1.15;;
39930;SDS011;26635;-35.248;149.138;2022-12-18T13:46:03;4.18;;;0.40;;
39930;SDS011;26635;-35.248;149.138;2022-12-18T13:49:02;6.97;;;0.80;;
39930;SDS011;26635;-35.248;149.138;2022-12-18T13:51:52;2.70;;;0.90;;
39930;SDS011;26635;-35.248;149.138;2022-12-18T13:54:38;5.50;;;0.90;;
39930;SDS011;26635;-35.248;149.138;2022-12-18T14:02:57;5.72;;;0.73;;
39930;SDS011;26635;-35.248;149.138;2022-12-18T14:05:32;6.13;;;0.93;;
39930;SDS011;26635;-35.248;149.138;2022-12-18T14:08:10;6.88;;;1.92;;
39930;SDS011;26635;-35.248;149.138;2022-12-18T14:10:47;8.45;;;1.13;;
39930;SDS011;26635;-35.248;149.138;2022-12-18T14:13:21;4.57;;;0.75;;
39930;SDS011;26635;-35.248;149.138;2022-12-18T14:15:57;3.40;;;0.73;;
39930;SDS011;26635;-35.248;149.138;2022-12-18T14:18:36;5.20;;;0.70;;
39930;SDS011;26635;-35.248;149.138;2022-12-18T14:21:40;5.10;;;1.23;;
39930;SDS011;26635;-35.248;149.138;2022-12-18T14:24:18;7.22;;;1.60;;
39930;SDS011;26635;-35.248;149.138;2022-12-18T14:26:50;4.15;;;0.82;;
39930;SDS011;26635;-35.248;149.138;2022-12-18T14:32:13;4.65;;;0.77;;
39930;SDS011;26635;-35.248;149.138;2022-12-18T14:34:48;5.60;;;0.90;;
39930;SDS011;26635;-35.248;149.138;2022-12-18T14:37:22;4.13;;;0.77;;
39930;SDS011;26635;-35.248;149.138;2022-12-18T14:39:59;5.68;;;1.70;;
39930;SDS011;26635;-35.248;149.138;2022-12-18T14:42:37;10.13;;;1.15;;
39930;SDS011;26635;-35.248;149.138;2022-12-18T14:54:03;6.32;;;1.80;;
39930;SDS011;26635;-35.248;149.138;2022-12-18T14:56:44;7.60;;;1.13;;
39930;SDS011;26635;-35.248;149.138;2022-12-18T14:59:21;6.00;;;1.50;;
39930;SDS011;26635;-35.248;149.138;2022-12-18T15:04:35;6.88;;;1.20;;
39930;SDS011;26635;-35.248;149.138;2022-12-18T15:12:50;6.65;;;1.02;;
39930;SDS011;26635;-35.248;149.138;2022-12-18T15:15:54;7.47;;;0.98;;
39930;SDS011;26635;-35.248;149.138;2022-12-18T15:18:31;4.95;;;1.00;;
39930;SDS011;26635;-35.248;149.138;2022-12-18T15:21:08;5.47;;;1.40;;
39930;SDS011;26635;-35.248;149.138;2022-12-18T15:26:17;7.32;;;1.35;;
39930;SDS011;26635;-35.248;149.138;2022-12-18T15:31:32;6.75;;;1.00;;
39930;SDS011;26635;-35.248;149.138;2022-12-18T15:34:12;4.40;;;0.70;;
39930;SDS011;26635;-35.248;149.138;2022-12-18T15:36:50;5.18;;;0.98;;
39930;SDS011;26635;-35.248;149.138;2022-12-18T15:39:20;15.40;;;1.83;;
39930;SDS011;26635;-35.248;149.138;2022-12-18T15:42:09;7.40;;;1.42;;
39930;SDS011;26635;-35.248;149.138;2022-12-18T15:45:17;4.25;;;1.08;;
39930;SDS011;26635;-35.248;149.138;2022-12-18T15:47:49;3.65;;;1.20;;
39930;SDS011;26635;-35.248;149.138;2022-12-18T15:50:21;4.15;;;0.90;;
39930;SDS011;26635;-35.248;149.138;2022-12-18T15:52:54;5.28;;;1.13;;
39930;SDS011;26635;-35.248;149.138;2022-12-18T15:55:26;7.97;;;0.88;;
39930;SDS011;26635;-35.248;149.138;2022-12-18T15:58:14;3.97;;;1.25;;
39930;SDS011;26635;-35.248;149.138;2022-12-18T16:00:45;8.20;;;0.90;;
39930;SDS011;26635;-35.248;149.138;2022-12-18T16:03:16;5.45;;;0.88;;
39930;SDS011;26635;-35.248;149.138;2022-12-18T16:05:47;9.30;;;1.45;;
39930;SDS011;26635;-35.248;149.138;2022-12-18T16:08:17;5.25;;;0.73;;
39930;SDS011;26635;-35.248;149.138;2022-12-18T16:10:57;8.32;;;1.35;;
39930;SDS011;26635;-35.248;149.138;2022-12-18T16:13:29;5.50;;;0.77;;
39930;SDS011;26635;-35.248;149.138;2022-12-18T16:15:59;3.83;;;1.00;;
39930;SDS011;26635;-35.248;149.138;2022-12-18T16:18:30;8.40;;;0.88;;
39930;SDS011;26635;-35.248;149.138;2022-12-18T16:21:00;5.18;;;0.90;;
39930;SDS011;26635;-35.248;149.138;2022-12-18T16:23:30;5.18;;;1.45;;
39930;SDS011;26635;-35.248;149.138;2022-12-18T16:26:01;7.60;;;0.85;;
39930;SDS011;26635;-35.248;149.138;2022-12-18T16:28:33;7.30;;;1.20;;
39930;SDS011;26635;-35.248;149.138;2022-12-18T16:31:07;5.45;;;2.38;;
39930;SDS011;26635;-35.248;149.138;2022-12-18T16:33:40;7.63;;;1.90;;
39930;SDS011;26635;-35.248;149.138;2022-12-18T16:36:10;7.25;;;1.13;;
39930;SDS011;26635;-35.248;149.138;2022-12-18T16:38:41;2.95;;;0.88;;
39930;SDS011;26635;-35.248;149.138;2022-12-18T16:41:17;5.15;;;0.68;;
39930;SDS011;26635;-35.248;149.138;2022-12-18T16:44:00;5.88;;;0.70;;
39930;SDS011;26635;-35.248;149.138;2022-12-18T16:46:34;3.67;;;0.57;;
39930;SDS011;26635;-35.248;149.138;2022-12-18T16:49:05;6.65;;;1.05;;
39930;SDS011;26635;-35.248;149.138;2022-12-18T16:51:35;3.90;;;0.70;;
39930;SDS011;26635;-35.248;149.138;2022-12-18T16:54:06;3.80;;;0.80;;
39930;SDS011;26635;-35.248;149.138;2022-12-18T16:56:43;6.20;;;1.05;;
39930;SDS011;26635;-35.248;149.138;2022-12-18T16:59:15;4.35;;;0.80;;
39930;SDS011;26635;-35.248;149.138;2022-12-18T17:01:46;4.68;;;0.70;;
39930;SDS011;26635;-35.248;149.138;2022-12-18T17:04:17;6.63;;;0.98;;
39930;SDS011;26635;-35.248;149.138;2022-12-18T17:06:48;3.47;;;1.10;;
39930;SDS011;26635;-35.248;149.138;2022-12-18T17:09:21;5.85;;;1.10;;
39930;SDS011;26635;-35.248;149.138;2022-12-18T17:11:53;3.22;;;0.70;;
39930;SDS011;26635;-35.248;149.138;2022-12-18T17:14:30;4.03;;;1.00;;
39930;SDS011;26635;-35.248;149.138;2022-12-18T17:17:02;2.83;;;1.02;;
39930;SDS011;26635;-35.248;149.138;2022-12-18T17:19:50;3.35;;;0.80;;
39930;SDS011;26635;-35.248;149.138;2022-12-18T17:22:21;7.45;;;0.85;;
39930;SDS011;26635;-35.248;149.138;2022-12-18T17:24:51;9.45;;;1.77;;
39930;SDS011;26635;-35.248;149.138;2022-12-18T17:27:22;3.83;;;0.90;;
39930;SDS011;26635;-35.248;149.138;2022-12-18T17:29:52;5.95;;;0.90;;
39930;SDS011;26635;-35.248;149.138;2022-12-18T17:32:24;3.05;;;0.75;;
39930;SDS011;26635;-35.248;149.138;2022-12-18T17:34:55;4.28;;;0.50;;
39930;SDS011;26635;-35.248;149.138;2022-12-18T17:37:32;5.45;;;0.77;;
39930;SDS011;26635;-35.248;149.138;2022-12-18T17:40:03;3.20;;;0.90;;